<?xml version="1.0" encoding="UTF-8" standalone="no" ?>
<gpx xmlns="http://www.topografix.com/GPX/1/1" xmlns:xsi="http://www.w3.org/2001/XMLSchema-instance" xsi:schemaLocation="http://www.topografix.com/GPX/1/1 http://www.topografix.com/GPX/1/1/gpx.xsd" version="1.1" creator="VisuGPX - https://www.visugpx.com">
  <metadata>
    <name>Rando AN-Ath Vosges 02_08_2016 Monique</name>
    <desc><![CDATA[Les Vosges 2016
Rando du 02/11/2016 guide Monique]]></desc>
  </metadata>
  <trk>
    <name><![CDATA[ACTIVE LOG]]></name>
    <trkseg>
      <trkpt lat="47.79499" lon="7.02967">
        <ele>558.183</ele>
        <time>2016-02-11T07:55:36.000Z</time>
      </trkpt>
      <trkpt lat="47.79562" lon="7.03027">
        <ele>555.299</ele>
        <time>2016-02-11T08:02:39.000Z</time>
      </trkpt>
      <trkpt lat="47.79621" lon="7.03016">
        <ele>549.05</ele>
        <time>2016-02-11T08:03:44.000Z</time>
      </trkpt>
      <trkpt lat="47.79628" lon="7.03044">
        <ele>544.244</ele>
        <time>2016-02-11T08:04:35.000Z</time>
      </trkpt>
      <trkpt lat="47.79652" lon="7.0302">
        <ele>543.282</ele>
        <time>2016-02-11T08:05:19.000Z</time>
      </trkpt>
      <trkpt lat="47.79667" lon="7.03011">
        <ele>539.437</ele>
        <time>2016-02-11T08:05:30.000Z</time>
      </trkpt>
      <trkpt lat="47.79691" lon="7.03034">
        <ele>537.995</ele>
        <time>2016-02-11T08:05:54.000Z</time>
      </trkpt>
      <trkpt lat="47.79713" lon="7.03084">
        <ele>537.995</ele>
        <time>2016-02-11T08:06:28.000Z</time>
      </trkpt>
      <trkpt lat="47.79708" lon="7.03107">
        <ele>537.995</ele>
        <time>2016-02-11T08:06:41.000Z</time>
      </trkpt>
      <trkpt lat="47.79697" lon="7.03121">
        <ele>539.437</ele>
        <time>2016-02-11T08:06:53.000Z</time>
      </trkpt>
      <trkpt lat="47.7968" lon="7.03131">
        <ele>542.321</ele>
        <time>2016-02-11T08:07:13.000Z</time>
      </trkpt>
      <trkpt lat="47.79648" lon="7.03196">
        <ele>543.763</ele>
        <time>2016-02-11T08:08:02.000Z</time>
      </trkpt>
      <trkpt lat="47.79644" lon="7.03221">
        <ele>545.686</ele>
        <time>2016-02-11T08:08:22.000Z</time>
      </trkpt>
      <trkpt lat="47.79647" lon="7.03247">
        <ele>545.686</ele>
        <time>2016-02-11T08:08:41.000Z</time>
      </trkpt>
      <trkpt lat="47.79667" lon="7.03285">
        <ele>545.686</ele>
        <time>2016-02-11T08:09:10.000Z</time>
      </trkpt>
      <trkpt lat="47.79726" lon="7.03333">
        <ele>539.918</ele>
        <time>2016-02-11T08:10:15.000Z</time>
      </trkpt>
      <trkpt lat="47.79744" lon="7.03346">
        <ele>539.918</ele>
        <time>2016-02-11T08:10:34.000Z</time>
      </trkpt>
      <trkpt lat="47.79761" lon="7.03372">
        <ele>539.918</ele>
        <time>2016-02-11T08:11:04.000Z</time>
      </trkpt>
      <trkpt lat="47.79755" lon="7.03384">
        <ele>539.918</ele>
        <time>2016-02-11T08:11:28.000Z</time>
      </trkpt>
      <trkpt lat="47.79744" lon="7.03399">
        <ele>544.244</ele>
        <time>2016-02-11T08:12:03.000Z</time>
      </trkpt>
      <trkpt lat="47.79729" lon="7.03405">
        <ele>549.531</ele>
        <time>2016-02-11T08:12:24.000Z</time>
      </trkpt>
      <trkpt lat="47.79714" lon="7.03412">
        <ele>551.453</ele>
        <time>2016-02-11T08:12:49.000Z</time>
      </trkpt>
      <trkpt lat="47.79702" lon="7.03411">
        <ele>558.663</ele>
        <time>2016-02-11T08:13:06.000Z</time>
      </trkpt>
      <trkpt lat="47.79674" lon="7.03423">
        <ele>564.431</ele>
        <time>2016-02-11T08:13:48.000Z</time>
      </trkpt>
      <trkpt lat="47.79639" lon="7.03425">
        <ele>565.393</ele>
        <time>2016-02-11T08:14:33.000Z</time>
      </trkpt>
      <trkpt lat="47.79625" lon="7.03433">
        <ele>572.603</ele>
        <time>2016-02-11T08:14:52.000Z</time>
      </trkpt>
      <trkpt lat="47.79609" lon="7.03434">
        <ele>572.603</ele>
        <time>2016-02-11T08:15:22.000Z</time>
      </trkpt>
      <trkpt lat="47.79596" lon="7.03429">
        <ele>573.564</ele>
        <time>2016-02-11T08:15:39.000Z</time>
      </trkpt>
      <trkpt lat="47.7956" lon="7.03425">
        <ele>575.486</ele>
        <time>2016-02-11T08:16:19.000Z</time>
      </trkpt>
      <trkpt lat="47.79552" lon="7.03419">
        <ele>575.486</ele>
        <time>2016-02-11T08:16:32.000Z</time>
      </trkpt>
      <trkpt lat="47.7952" lon="7.0342">
        <ele>575.486</ele>
        <time>2016-02-11T08:17:09.000Z</time>
      </trkpt>
      <trkpt lat="47.79531" lon="7.03408">
        <ele>577.89</ele>
        <time>2016-02-11T08:17:51.000Z</time>
      </trkpt>
      <trkpt lat="47.79522" lon="7.0341">
        <ele>584.619</ele>
        <time>2016-02-11T08:18:38.000Z</time>
      </trkpt>
      <trkpt lat="47.7951" lon="7.03407">
        <ele>585.58</ele>
        <time>2016-02-11T08:19:12.000Z</time>
      </trkpt>
      <trkpt lat="47.795" lon="7.03416">
        <ele>585.58</ele>
        <time>2016-02-11T08:19:40.000Z</time>
      </trkpt>
      <trkpt lat="47.79475" lon="7.03419">
        <ele>588.945</ele>
        <time>2016-02-11T08:20:15.000Z</time>
      </trkpt>
      <trkpt lat="47.79466" lon="7.03412">
        <ele>592.31</ele>
        <time>2016-02-11T08:20:41.000Z</time>
      </trkpt>
      <trkpt lat="47.79464" lon="7.03407">
        <ele>609.133</ele>
        <time>2016-02-11T08:20:57.000Z</time>
      </trkpt>
      <trkpt lat="47.79455" lon="7.03409">
        <ele>610.574</ele>
        <time>2016-02-11T08:21:35.000Z</time>
      </trkpt>
      <trkpt lat="47.79435" lon="7.03421">
        <ele>612.017</ele>
        <time>2016-02-11T08:22:02.000Z</time>
      </trkpt>
      <trkpt lat="47.7941" lon="7.0345">
        <ele>615.381</ele>
        <time>2016-02-11T08:22:50.000Z</time>
      </trkpt>
      <trkpt lat="47.79395" lon="7.03478">
        <ele>615.381</ele>
        <time>2016-02-11T08:23:32.000Z</time>
      </trkpt>
      <trkpt lat="47.7939" lon="7.03461">
        <ele>615.862</ele>
        <time>2016-02-11T08:25:13.000Z</time>
      </trkpt>
      <trkpt lat="47.79399" lon="7.03471">
        <ele>615.862</ele>
        <time>2016-02-11T08:25:53.000Z</time>
      </trkpt>
      <trkpt lat="47.79418" lon="7.03463">
        <ele>609.613</ele>
        <time>2016-02-11T08:28:26.000Z</time>
      </trkpt>
      <trkpt lat="47.79428" lon="7.03465">
        <ele>614.9</ele>
        <time>2016-02-11T08:28:37.000Z</time>
      </trkpt>
      <trkpt lat="47.79449" lon="7.03462">
        <ele>614.9</ele>
        <time>2016-02-11T08:29:00.000Z</time>
      </trkpt>
      <trkpt lat="47.79543" lon="7.03516">
        <ele>626.917</ele>
        <time>2016-02-11T08:30:49.000Z</time>
      </trkpt>
      <trkpt lat="47.79594" lon="7.03539">
        <ele>626.917</ele>
        <time>2016-02-11T08:31:42.000Z</time>
      </trkpt>
      <trkpt lat="47.79613" lon="7.03554">
        <ele>621.63</ele>
        <time>2016-02-11T08:32:03.000Z</time>
      </trkpt>
      <trkpt lat="47.79687" lon="7.03578">
        <ele>621.63</ele>
        <time>2016-02-11T08:33:27.000Z</time>
      </trkpt>
      <trkpt lat="47.79698" lon="7.03577">
        <ele>621.149</ele>
        <time>2016-02-11T08:33:37.000Z</time>
      </trkpt>
      <trkpt lat="47.79712" lon="7.03586">
        <ele>620.668</ele>
        <time>2016-02-11T08:33:56.000Z</time>
      </trkpt>
      <trkpt lat="47.79731" lon="7.03586">
        <ele>620.188</ele>
        <time>2016-02-11T08:34:15.000Z</time>
      </trkpt>
      <trkpt lat="47.79745" lon="7.03591">
        <ele>620.188</ele>
        <time>2016-02-11T08:34:30.000Z</time>
      </trkpt>
      <trkpt lat="47.79756" lon="7.03599">
        <ele>620.188</ele>
        <time>2016-02-11T08:34:44.000Z</time>
      </trkpt>
      <trkpt lat="47.79774" lon="7.03624">
        <ele>625.956</ele>
        <time>2016-02-11T08:35:20.000Z</time>
      </trkpt>
      <trkpt lat="47.79813" lon="7.03669">
        <ele>629.32</ele>
        <time>2016-02-11T08:36:41.000Z</time>
      </trkpt>
      <trkpt lat="47.79822" lon="7.03668">
        <ele>632.204</ele>
        <time>2016-02-11T08:38:41.000Z</time>
      </trkpt>
      <trkpt lat="47.79869" lon="7.03767">
        <ele>655.757</ele>
        <time>2016-02-11T08:41:57.000Z</time>
      </trkpt>
      <trkpt lat="47.7989" lon="7.03795">
        <ele>662.966</ele>
        <time>2016-02-11T08:42:47.000Z</time>
      </trkpt>
      <trkpt lat="47.79964" lon="7.03908">
        <ele>674.983</ele>
        <time>2016-02-11T08:45:29.000Z</time>
      </trkpt>
      <trkpt lat="47.79974" lon="7.03912">
        <ele>674.983</ele>
        <time>2016-02-11T08:46:24.000Z</time>
      </trkpt>
      <trkpt lat="47.79998" lon="7.03949">
        <ele>675.944</ele>
        <time>2016-02-11T08:47:29.000Z</time>
      </trkpt>
      <trkpt lat="47.80021" lon="7.03972">
        <ele>681.231</ele>
        <time>2016-02-11T08:48:06.000Z</time>
      </trkpt>
      <trkpt lat="47.80038" lon="7.03986">
        <ele>685.077</ele>
        <time>2016-02-11T08:48:27.000Z</time>
      </trkpt>
      <trkpt lat="47.80059" lon="7.04006">
        <ele>685.557</ele>
        <time>2016-02-11T08:48:56.000Z</time>
      </trkpt>
      <trkpt lat="47.80083" lon="7.04045">
        <ele>690.364</ele>
        <time>2016-02-11T08:49:40.000Z</time>
      </trkpt>
      <trkpt lat="47.80104" lon="7.0411">
        <ele>698.054</ele>
        <time>2016-02-11T08:51:28.000Z</time>
      </trkpt>
      <trkpt lat="47.80106" lon="7.04132">
        <ele>704.303</ele>
        <time>2016-02-11T08:52:08.000Z</time>
      </trkpt>
      <trkpt lat="47.80103" lon="7.04146">
        <ele>709.11</ele>
        <time>2016-02-11T08:52:40.000Z</time>
      </trkpt>
      <trkpt lat="47.80106" lon="7.04182">
        <ele>719.684</ele>
        <time>2016-02-11T08:53:29.000Z</time>
      </trkpt>
      <trkpt lat="47.80126" lon="7.04207">
        <ele>727.855</ele>
        <time>2016-02-11T08:54:16.000Z</time>
      </trkpt>
      <trkpt lat="47.80146" lon="7.0421">
        <ele>727.855</ele>
        <time>2016-02-11T08:54:41.000Z</time>
      </trkpt>
      <trkpt lat="47.80154" lon="7.04215">
        <ele>728.336</ele>
        <time>2016-02-11T08:55:08.000Z</time>
      </trkpt>
      <trkpt lat="47.80156" lon="7.04251">
        <ele>730.259</ele>
        <time>2016-02-11T08:56:58.000Z</time>
      </trkpt>
      <trkpt lat="47.80154" lon="7.04267">
        <ele>730.259</ele>
        <time>2016-02-11T08:57:19.000Z</time>
      </trkpt>
      <trkpt lat="47.80147" lon="7.04229">
        <ele>730.259</ele>
        <time>2016-02-11T08:58:21.000Z</time>
      </trkpt>
      <trkpt lat="47.80151" lon="7.04213">
        <ele>729.297</ele>
        <time>2016-02-11T08:58:43.000Z</time>
      </trkpt>
      <trkpt lat="47.80131" lon="7.04263">
        <ele>729.297</ele>
        <time>2016-02-11T09:00:14.000Z</time>
      </trkpt>
      <trkpt lat="47.80149" lon="7.04279">
        <ele>732.662</ele>
        <time>2016-02-11T09:00:58.000Z</time>
      </trkpt>
      <trkpt lat="47.80167" lon="7.04301">
        <ele>737.949</ele>
        <time>2016-02-11T09:01:49.000Z</time>
      </trkpt>
      <trkpt lat="47.80182" lon="7.04313">
        <ele>741.794</ele>
        <time>2016-02-11T09:02:26.000Z</time>
      </trkpt>
      <trkpt lat="47.802" lon="7.04333">
        <ele>752.369</ele>
        <time>2016-02-11T09:03:16.000Z</time>
      </trkpt>
      <trkpt lat="47.80222" lon="7.04351">
        <ele>756.214</ele>
        <time>2016-02-11T09:04:25.000Z</time>
      </trkpt>
      <trkpt lat="47.80267" lon="7.04413">
        <ele>774.479</ele>
        <time>2016-02-11T09:06:27.000Z</time>
      </trkpt>
      <trkpt lat="47.80301" lon="7.04425">
        <ele>776.883</ele>
        <time>2016-02-11T09:07:22.000Z</time>
      </trkpt>
      <trkpt lat="47.80313" lon="7.04451">
        <ele>780.247</ele>
        <time>2016-02-11T09:08:26.000Z</time>
      </trkpt>
      <trkpt lat="47.80323" lon="7.04455">
        <ele>780.247</ele>
        <time>2016-02-11T09:13:47.000Z</time>
      </trkpt>
      <trkpt lat="47.80314" lon="7.0445">
        <ele>782.17</ele>
        <time>2016-02-11T09:14:16.000Z</time>
      </trkpt>
      <trkpt lat="47.80317" lon="7.04436">
        <ele>782.651</ele>
        <time>2016-02-11T09:16:13.000Z</time>
      </trkpt>
      <trkpt lat="47.80336" lon="7.04422">
        <ele>782.651</ele>
        <time>2016-02-11T09:16:46.000Z</time>
      </trkpt>
      <trkpt lat="47.80351" lon="7.0442">
        <ele>782.17</ele>
        <time>2016-02-11T09:17:09.000Z</time>
      </trkpt>
      <trkpt lat="47.8037" lon="7.04456">
        <ele>782.17</ele>
        <time>2016-02-11T09:17:56.000Z</time>
      </trkpt>
      <trkpt lat="47.8042" lon="7.04491">
        <ele>780.728</ele>
        <time>2016-02-11T09:19:08.000Z</time>
      </trkpt>
      <trkpt lat="47.80423" lon="7.04474">
        <ele>779.766</ele>
        <time>2016-02-11T09:19:34.000Z</time>
      </trkpt>
      <trkpt lat="47.80438" lon="7.04454">
        <ele>777.363</ele>
        <time>2016-02-11T09:19:57.000Z</time>
      </trkpt>
      <trkpt lat="47.80469" lon="7.04428">
        <ele>774.479</ele>
        <time>2016-02-11T09:20:36.000Z</time>
      </trkpt>
      <trkpt lat="47.8048" lon="7.04423">
        <ele>772.076</ele>
        <time>2016-02-11T09:20:47.000Z</time>
      </trkpt>
      <trkpt lat="47.80503" lon="7.044">
        <ele>768.711</ele>
        <time>2016-02-11T09:21:18.000Z</time>
      </trkpt>
      <trkpt lat="47.8058" lon="7.04307">
        <ele>759.098</ele>
        <time>2016-02-11T09:23:05.000Z</time>
      </trkpt>
      <trkpt lat="47.80604" lon="7.04267">
        <ele>756.695</ele>
        <time>2016-02-11T09:23:43.000Z</time>
      </trkpt>
      <trkpt lat="47.80613" lon="7.04263">
        <ele>755.253</ele>
        <time>2016-02-11T09:23:55.000Z</time>
      </trkpt>
      <trkpt lat="47.80646" lon="7.04259">
        <ele>752.369</ele>
        <time>2016-02-11T09:24:29.000Z</time>
      </trkpt>
      <trkpt lat="47.80655" lon="7.04249">
        <ele>751.408</ele>
        <time>2016-02-11T09:24:48.000Z</time>
      </trkpt>
      <trkpt lat="47.8065" lon="7.0426">
        <ele>751.408</ele>
        <time>2016-02-11T09:26:11.000Z</time>
      </trkpt>
      <trkpt lat="47.80652" lon="7.04241">
        <ele>751.408</ele>
        <time>2016-02-11T09:27:16.000Z</time>
      </trkpt>
      <trkpt lat="47.80677" lon="7.04244">
        <ele>758.617</ele>
        <time>2016-02-11T09:27:56.000Z</time>
      </trkpt>
      <trkpt lat="47.80713" lon="7.04203">
        <ele>762.463</ele>
        <time>2016-02-11T09:28:54.000Z</time>
      </trkpt>
      <trkpt lat="47.80727" lon="7.04165">
        <ele>773.999</ele>
        <time>2016-02-11T09:29:36.000Z</time>
      </trkpt>
      <trkpt lat="47.80728" lon="7.04158">
        <ele>782.651</ele>
        <time>2016-02-11T09:29:46.000Z</time>
      </trkpt>
      <trkpt lat="47.80735" lon="7.04152">
        <ele>784.093</ele>
        <time>2016-02-11T09:29:53.000Z</time>
      </trkpt>
      <trkpt lat="47.80746" lon="7.04142">
        <ele>784.093</ele>
        <time>2016-02-11T09:30:09.000Z</time>
      </trkpt>
      <trkpt lat="47.80777" lon="7.04095">
        <ele>784.573</ele>
        <time>2016-02-11T09:31:01.000Z</time>
      </trkpt>
      <trkpt lat="47.80796" lon="7.04067">
        <ele>784.573</ele>
        <time>2016-02-11T09:31:37.000Z</time>
      </trkpt>
      <trkpt lat="47.80804" lon="7.04053">
        <ele>787.938</ele>
        <time>2016-02-11T09:31:54.000Z</time>
      </trkpt>
      <trkpt lat="47.80816" lon="7.04049">
        <ele>790.822</ele>
        <time>2016-02-11T09:32:15.000Z</time>
      </trkpt>
      <trkpt lat="47.80851" lon="7.03998">
        <ele>790.822</ele>
        <time>2016-02-11T09:33:23.000Z</time>
      </trkpt>
      <trkpt lat="47.80853" lon="7.03978">
        <ele>796.109</ele>
        <time>2016-02-11T09:33:49.000Z</time>
      </trkpt>
      <trkpt lat="47.80852" lon="7.03949">
        <ele>804.761</ele>
        <time>2016-02-11T09:34:09.000Z</time>
      </trkpt>
      <trkpt lat="47.80858" lon="7.03934">
        <ele>804.761</ele>
        <time>2016-02-11T09:34:20.000Z</time>
      </trkpt>
      <trkpt lat="47.80859" lon="7.03918">
        <ele>804.761</ele>
        <time>2016-02-11T09:34:31.000Z</time>
      </trkpt>
      <trkpt lat="47.8085" lon="7.03891">
        <ele>810.529</ele>
        <time>2016-02-11T09:35:03.000Z</time>
      </trkpt>
      <trkpt lat="47.80859" lon="7.03883">
        <ele>803.319</ele>
        <time>2016-02-11T09:35:14.000Z</time>
      </trkpt>
      <trkpt lat="47.8087" lon="7.03864">
        <ele>803.319</ele>
        <time>2016-02-11T09:35:33.000Z</time>
      </trkpt>
      <trkpt lat="47.80875" lon="7.03846">
        <ele>810.529</ele>
        <time>2016-02-11T09:36:02.000Z</time>
      </trkpt>
      <trkpt lat="47.80891" lon="7.03809">
        <ele>811.009</ele>
        <time>2016-02-11T09:36:37.000Z</time>
      </trkpt>
      <trkpt lat="47.80888" lon="7.03797">
        <ele>819.661</ele>
        <time>2016-02-11T09:36:48.000Z</time>
      </trkpt>
      <trkpt lat="47.80898" lon="7.03794">
        <ele>819.661</ele>
        <time>2016-02-11T09:37:17.000Z</time>
      </trkpt>
      <trkpt lat="47.80892" lon="7.03809">
        <ele>822.064</ele>
        <time>2016-02-11T09:39:27.000Z</time>
      </trkpt>
      <trkpt lat="47.80904" lon="7.03808">
        <ele>822.064</ele>
        <time>2016-02-11T09:40:31.000Z</time>
      </trkpt>
      <trkpt lat="47.80889" lon="7.03809">
        <ele>821.103</ele>
        <time>2016-02-11T09:41:23.000Z</time>
      </trkpt>
      <trkpt lat="47.809" lon="7.03811">
        <ele>821.103</ele>
        <time>2016-02-11T09:43:13.000Z</time>
      </trkpt>
      <trkpt lat="47.80901" lon="7.03797">
        <ele>823.026</ele>
        <time>2016-02-11T09:44:03.000Z</time>
      </trkpt>
      <trkpt lat="47.8091" lon="7.03787">
        <ele>823.026</ele>
        <time>2016-02-11T09:44:20.000Z</time>
      </trkpt>
      <trkpt lat="47.8097" lon="7.03766">
        <ele>824.948</ele>
        <time>2016-02-11T09:45:44.000Z</time>
      </trkpt>
      <trkpt lat="47.80989" lon="7.03766">
        <ele>828.313</ele>
        <time>2016-02-11T09:46:06.000Z</time>
      </trkpt>
      <trkpt lat="47.81005" lon="7.03777">
        <ele>828.313</ele>
        <time>2016-02-11T09:46:29.000Z</time>
      </trkpt>
      <trkpt lat="47.8104" lon="7.0375">
        <ele>830.236</ele>
        <time>2016-02-11T09:47:24.000Z</time>
      </trkpt>
      <trkpt lat="47.81047" lon="7.03727">
        <ele>830.717</ele>
        <time>2016-02-11T09:47:46.000Z</time>
      </trkpt>
      <trkpt lat="47.81048" lon="7.03705">
        <ele>830.717</ele>
        <time>2016-02-11T09:48:04.000Z</time>
      </trkpt>
      <trkpt lat="47.81062" lon="7.03681">
        <ele>832.158</ele>
        <time>2016-02-11T09:48:26.000Z</time>
      </trkpt>
      <trkpt lat="47.81065" lon="7.03662">
        <ele>838.888</ele>
        <time>2016-02-11T09:48:47.000Z</time>
      </trkpt>
      <trkpt lat="47.81074" lon="7.03645">
        <ele>840.81</ele>
        <time>2016-02-11T09:49:06.000Z</time>
      </trkpt>
      <trkpt lat="47.81081" lon="7.03637">
        <ele>845.136</ele>
        <time>2016-02-11T09:49:16.000Z</time>
      </trkpt>
      <trkpt lat="47.81105" lon="7.03599">
        <ele>845.136</ele>
        <time>2016-02-11T09:50:05.000Z</time>
      </trkpt>
      <trkpt lat="47.81137" lon="7.03581">
        <ele>846.098</ele>
        <time>2016-02-11T09:50:51.000Z</time>
      </trkpt>
      <trkpt lat="47.81139" lon="7.03535">
        <ele>848.501</ele>
        <time>2016-02-11T09:51:32.000Z</time>
      </trkpt>
      <trkpt lat="47.81152" lon="7.03501">
        <ele>852.346</ele>
        <time>2016-02-11T09:52:12.000Z</time>
      </trkpt>
      <trkpt lat="47.81155" lon="7.0348">
        <ele>852.827</ele>
        <time>2016-02-11T09:52:33.000Z</time>
      </trkpt>
      <trkpt lat="47.81159" lon="7.03465">
        <ele>857.633</ele>
        <time>2016-02-11T09:52:45.000Z</time>
      </trkpt>
      <trkpt lat="47.81168" lon="7.03414">
        <ele>858.114</ele>
        <time>2016-02-11T09:53:23.000Z</time>
      </trkpt>
      <trkpt lat="47.81166" lon="7.03393">
        <ele>859.556</ele>
        <time>2016-02-11T09:53:43.000Z</time>
      </trkpt>
      <trkpt lat="47.81167" lon="7.03368">
        <ele>865.324</ele>
        <time>2016-02-11T09:54:04.000Z</time>
      </trkpt>
      <trkpt lat="47.81165" lon="7.03353">
        <ele>865.805</ele>
        <time>2016-02-11T09:54:25.000Z</time>
      </trkpt>
      <trkpt lat="47.81174" lon="7.03349">
        <ele>865.324</ele>
        <time>2016-02-11T09:55:18.000Z</time>
      </trkpt>
      <trkpt lat="47.8117" lon="7.03363">
        <ele>865.324</ele>
        <time>2016-02-11T09:57:23.000Z</time>
      </trkpt>
      <trkpt lat="47.81166" lon="7.0334">
        <ele>868.208</ele>
        <time>2016-02-11T09:58:49.000Z</time>
      </trkpt>
      <trkpt lat="47.81167" lon="7.03318">
        <ele>868.208</ele>
        <time>2016-02-11T09:59:26.000Z</time>
      </trkpt>
      <trkpt lat="47.81179" lon="7.03266">
        <ele>873.495</ele>
        <time>2016-02-11T10:00:56.000Z</time>
      </trkpt>
      <trkpt lat="47.81194" lon="7.0325">
        <ele>875.898</ele>
        <time>2016-02-11T10:01:17.000Z</time>
      </trkpt>
      <trkpt lat="47.81222" lon="7.03238">
        <ele>881.666</ele>
        <time>2016-02-11T10:01:50.000Z</time>
      </trkpt>
      <trkpt lat="47.81341" lon="7.03231">
        <ele>896.567</ele>
        <time>2016-02-11T10:04:16.000Z</time>
      </trkpt>
      <trkpt lat="47.81416" lon="7.03227">
        <ele>908.103</ele>
        <time>2016-02-11T10:05:56.000Z</time>
      </trkpt>
      <trkpt lat="47.81477" lon="7.03209">
        <ele>919.158</ele>
        <time>2016-02-11T10:07:30.000Z</time>
      </trkpt>
      <trkpt lat="47.81496" lon="7.03211">
        <ele>922.042</ele>
        <time>2016-02-11T10:08:02.000Z</time>
      </trkpt>
      <trkpt lat="47.81515" lon="7.03192">
        <ele>924.445</ele>
        <time>2016-02-11T10:08:35.000Z</time>
      </trkpt>
      <trkpt lat="47.81524" lon="7.03176">
        <ele>925.887</ele>
        <time>2016-02-11T10:08:52.000Z</time>
      </trkpt>
      <trkpt lat="47.81554" lon="7.03142">
        <ele>926.848</ele>
        <time>2016-02-11T10:10:08.000Z</time>
      </trkpt>
      <trkpt lat="47.8156" lon="7.03125">
        <ele>928.29</ele>
        <time>2016-02-11T10:10:28.000Z</time>
      </trkpt>
      <trkpt lat="47.81561" lon="7.03114">
        <ele>931.655</ele>
        <time>2016-02-11T10:10:36.000Z</time>
      </trkpt>
      <trkpt lat="47.81566" lon="7.03097">
        <ele>931.655</ele>
        <time>2016-02-11T10:10:54.000Z</time>
      </trkpt>
      <trkpt lat="47.81576" lon="7.03085">
        <ele>935.02</ele>
        <time>2016-02-11T10:11:14.000Z</time>
      </trkpt>
      <trkpt lat="47.81581" lon="7.03058">
        <ele>941.749</ele>
        <time>2016-02-11T10:11:44.000Z</time>
      </trkpt>
      <trkpt lat="47.81595" lon="7.03035">
        <ele>944.633</ele>
        <time>2016-02-11T10:12:21.000Z</time>
      </trkpt>
      <trkpt lat="47.81614" lon="7.02978">
        <ele>952.804</ele>
        <time>2016-02-11T10:13:36.000Z</time>
      </trkpt>
      <trkpt lat="47.81613" lon="7.02964">
        <ele>953.284</ele>
        <time>2016-02-11T10:13:48.000Z</time>
      </trkpt>
      <trkpt lat="47.8162" lon="7.02944">
        <ele>955.688</ele>
        <time>2016-02-11T10:14:09.000Z</time>
      </trkpt>
      <trkpt lat="47.8162" lon="7.02929">
        <ele>964.34</ele>
        <time>2016-02-11T10:14:36.000Z</time>
      </trkpt>
      <trkpt lat="47.81617" lon="7.0291">
        <ele>965.301</ele>
        <time>2016-02-11T10:14:58.000Z</time>
      </trkpt>
      <trkpt lat="47.81612" lon="7.02898">
        <ele>965.301</ele>
        <time>2016-02-11T10:15:31.000Z</time>
      </trkpt>
      <trkpt lat="47.81602" lon="7.02888">
        <ele>967.224</ele>
        <time>2016-02-11T10:15:58.000Z</time>
      </trkpt>
      <trkpt lat="47.81595" lon="7.02863">
        <ele>967.224</ele>
        <time>2016-02-11T10:16:28.000Z</time>
      </trkpt>
      <trkpt lat="47.81549" lon="7.0281">
        <ele>967.224</ele>
        <time>2016-02-11T10:18:09.000Z</time>
      </trkpt>
      <trkpt lat="47.81543" lon="7.02796">
        <ele>967.224</ele>
        <time>2016-02-11T10:18:31.000Z</time>
      </trkpt>
      <trkpt lat="47.81531" lon="7.02781">
        <ele>967.704</ele>
        <time>2016-02-11T10:18:57.000Z</time>
      </trkpt>
      <trkpt lat="47.8152" lon="7.02759">
        <ele>972.992</ele>
        <time>2016-02-11T10:19:28.000Z</time>
      </trkpt>
      <trkpt lat="47.81513" lon="7.02747">
        <ele>976.837</ele>
        <time>2016-02-11T10:19:51.000Z</time>
      </trkpt>
      <trkpt lat="47.81507" lon="7.02737">
        <ele>982.605</ele>
        <time>2016-02-11T10:20:02.000Z</time>
      </trkpt>
      <trkpt lat="47.81495" lon="7.02695">
        <ele>985.008</ele>
        <time>2016-02-11T10:20:51.000Z</time>
      </trkpt>
      <trkpt lat="47.81491" lon="7.02651">
        <ele>987.892</ele>
        <time>2016-02-11T10:21:45.000Z</time>
      </trkpt>
      <trkpt lat="47.81496" lon="7.02637">
        <ele>992.218</ele>
        <time>2016-02-11T10:27:52.000Z</time>
      </trkpt>
      <trkpt lat="47.81499" lon="7.02619">
        <ele>995.583</ele>
        <time>2016-02-11T10:28:18.000Z</time>
      </trkpt>
      <trkpt lat="47.81535" lon="7.0257">
        <ele>998.947</ele>
        <time>2016-02-11T10:29:45.000Z</time>
      </trkpt>
      <trkpt lat="47.81609" lon="7.02478">
        <ele>1021.06</ele>
        <time>2016-02-11T10:32:25.000Z</time>
      </trkpt>
      <trkpt lat="47.81669" lon="7.02456">
        <ele>1025.38</ele>
        <time>2016-02-11T10:34:17.000Z</time>
      </trkpt>
      <trkpt lat="47.81685" lon="7.02462">
        <ele>1027.31</ele>
        <time>2016-02-11T10:34:53.000Z</time>
      </trkpt>
      <trkpt lat="47.81716" lon="7.0245">
        <ele>1046.05</ele>
        <time>2016-02-11T10:35:55.000Z</time>
      </trkpt>
      <trkpt lat="47.81791" lon="7.02442">
        <ele>1054.22</ele>
        <time>2016-02-11T10:38:13.000Z</time>
      </trkpt>
      <trkpt lat="47.81802" lon="7.02453">
        <ele>1061.43</ele>
        <time>2016-02-11T10:38:56.000Z</time>
      </trkpt>
      <trkpt lat="47.81843" lon="7.02454">
        <ele>1063.36</ele>
        <time>2016-02-11T10:40:56.000Z</time>
      </trkpt>
      <trkpt lat="47.8187" lon="7.02466">
        <ele>1066.72</ele>
        <time>2016-02-11T10:41:44.000Z</time>
      </trkpt>
      <trkpt lat="47.81899" lon="7.02472">
        <ele>1068.64</ele>
        <time>2016-02-11T10:42:42.000Z</time>
      </trkpt>
      <trkpt lat="47.81907" lon="7.0248">
        <ele>1076.33</ele>
        <time>2016-02-11T10:43:57.000Z</time>
      </trkpt>
      <trkpt lat="47.81897" lon="7.02472">
        <ele>1076.33</ele>
        <time>2016-02-11T10:46:20.000Z</time>
      </trkpt>
      <trkpt lat="47.81923" lon="7.02475">
        <ele>1078.26</ele>
        <time>2016-02-11T10:48:55.000Z</time>
      </trkpt>
      <trkpt lat="47.82034" lon="7.02401">
        <ele>1082.58</ele>
        <time>2016-02-11T10:51:32.000Z</time>
      </trkpt>
      <trkpt lat="47.8208" lon="7.02335">
        <ele>1086.43</ele>
        <time>2016-02-11T10:52:55.000Z</time>
      </trkpt>
      <trkpt lat="47.82149" lon="7.02226">
        <ele>1089.31</ele>
        <time>2016-02-11T10:55:13.000Z</time>
      </trkpt>
      <trkpt lat="47.82169" lon="7.02178">
        <ele>1092.68</ele>
        <time>2016-02-11T10:56:21.000Z</time>
      </trkpt>
      <trkpt lat="47.82186" lon="7.02135">
        <ele>1096.52</ele>
        <time>2016-02-11T10:57:09.000Z</time>
      </trkpt>
      <trkpt lat="47.82199" lon="7.02103">
        <ele>1100.37</ele>
        <time>2016-02-11T10:57:46.000Z</time>
      </trkpt>
      <trkpt lat="47.82222" lon="7.02044">
        <ele>1104.21</ele>
        <time>2016-02-11T10:59:07.000Z</time>
      </trkpt>
      <trkpt lat="47.82282" lon="7.01995">
        <ele>1105.65</ele>
        <time>2016-02-11T11:00:53.000Z</time>
      </trkpt>
      <trkpt lat="47.82299" lon="7.01993">
        <ele>1105.65</ele>
        <time>2016-02-11T11:01:18.000Z</time>
      </trkpt>
      <trkpt lat="47.82308" lon="7.01986">
        <ele>1106.13</ele>
        <time>2016-02-11T11:01:30.000Z</time>
      </trkpt>
      <trkpt lat="47.82295" lon="7.01949">
        <ele>1107.1</ele>
        <time>2016-02-11T11:02:06.000Z</time>
      </trkpt>
      <trkpt lat="47.82289" lon="7.01902">
        <ele>1111.9</ele>
        <time>2016-02-11T11:02:51.000Z</time>
      </trkpt>
      <trkpt lat="47.82257" lon="7.01656">
        <ele>1112.86</ele>
        <time>2016-02-11T11:06:29.000Z</time>
      </trkpt>
      <trkpt lat="47.82284" lon="7.01487">
        <ele>1112.86</ele>
        <time>2016-02-11T11:08:56.000Z</time>
      </trkpt>
      <trkpt lat="47.82311" lon="7.01431">
        <ele>1112.86</ele>
        <time>2016-02-11T11:10:03.000Z</time>
      </trkpt>
      <trkpt lat="47.823" lon="7.01457">
        <ele>1111.42</ele>
        <time>2016-02-11T12:27:28.000Z</time>
      </trkpt>
      <trkpt lat="47.82312" lon="7.01474">
        <ele>1108.06</ele>
        <time>2016-02-11T12:27:47.000Z</time>
      </trkpt>
      <trkpt lat="47.82324" lon="7.01479">
        <ele>1108.06</ele>
        <time>2016-02-11T12:27:58.000Z</time>
      </trkpt>
      <trkpt lat="47.82309" lon="7.0147">
        <ele>1108.06</ele>
        <time>2016-02-11T12:29:40.000Z</time>
      </trkpt>
      <trkpt lat="47.82295" lon="7.01451">
        <ele>1112.38</ele>
        <time>2016-02-11T12:30:02.000Z</time>
      </trkpt>
      <trkpt lat="47.82286" lon="7.0144">
        <ele>1117.19</ele>
        <time>2016-02-11T12:30:20.000Z</time>
      </trkpt>
      <trkpt lat="47.82281" lon="7.01422">
        <ele>1119.11</ele>
        <time>2016-02-11T12:30:48.000Z</time>
      </trkpt>
      <trkpt lat="47.82275" lon="7.01409">
        <ele>1122.96</ele>
        <time>2016-02-11T12:31:06.000Z</time>
      </trkpt>
      <trkpt lat="47.82272" lon="7.01395">
        <ele>1123.44</ele>
        <time>2016-02-11T12:31:22.000Z</time>
      </trkpt>
      <trkpt lat="47.82281" lon="7.01361">
        <ele>1123.92</ele>
        <time>2016-02-11T12:32:33.000Z</time>
      </trkpt>
      <trkpt lat="47.82269" lon="7.01365">
        <ele>1127.28</ele>
        <time>2016-02-11T12:32:53.000Z</time>
      </trkpt>
      <trkpt lat="47.82276" lon="7.01389">
        <ele>1129.69</ele>
        <time>2016-02-11T12:33:58.000Z</time>
      </trkpt>
      <trkpt lat="47.82319" lon="7.01196">
        <ele>1131.61</ele>
        <time>2016-02-11T12:37:54.000Z</time>
      </trkpt>
      <trkpt lat="47.82328" lon="7.0118">
        <ele>1132.57</ele>
        <time>2016-02-11T12:38:12.000Z</time>
      </trkpt>
      <trkpt lat="47.82401" lon="7.00969">
        <ele>1141.7</ele>
        <time>2016-02-11T12:42:17.000Z</time>
      </trkpt>
      <trkpt lat="47.82409" lon="7.00959">
        <ele>1143.14</ele>
        <time>2016-02-11T12:42:37.000Z</time>
      </trkpt>
      <trkpt lat="47.82415" lon="7.00893">
        <ele>1149.87</ele>
        <time>2016-02-11T12:44:04.000Z</time>
      </trkpt>
      <trkpt lat="47.82411" lon="7.00825">
        <ele>1149.87</ele>
        <time>2016-02-11T12:45:15.000Z</time>
      </trkpt>
      <trkpt lat="47.82417" lon="7.00769">
        <ele>1149.87</ele>
        <time>2016-02-11T12:47:36.000Z</time>
      </trkpt>
      <trkpt lat="47.82406" lon="7.00697">
        <ele>1145.55</ele>
        <time>2016-02-11T12:52:49.000Z</time>
      </trkpt>
      <trkpt lat="47.82398" lon="7.00684">
        <ele>1145.07</ele>
        <time>2016-02-11T12:52:58.000Z</time>
      </trkpt>
      <trkpt lat="47.82396" lon="7.00663">
        <ele>1144.11</ele>
        <time>2016-02-11T12:53:12.000Z</time>
      </trkpt>
      <trkpt lat="47.82387" lon="7.00639">
        <ele>1138.82</ele>
        <time>2016-02-11T12:53:32.000Z</time>
      </trkpt>
      <trkpt lat="47.8238" lon="7.00629">
        <ele>1135.94</ele>
        <time>2016-02-11T12:53:42.000Z</time>
      </trkpt>
      <trkpt lat="47.82373" lon="7.00604">
        <ele>1131.61</ele>
        <time>2016-02-11T12:54:04.000Z</time>
      </trkpt>
      <trkpt lat="47.82364" lon="7.00566">
        <ele>1130.17</ele>
        <time>2016-02-11T12:54:44.000Z</time>
      </trkpt>
      <trkpt lat="47.82362" lon="7.00548">
        <ele>1127.28</ele>
        <time>2016-02-11T12:55:03.000Z</time>
      </trkpt>
      <trkpt lat="47.82344" lon="7.00506">
        <ele>1125.36</ele>
        <time>2016-02-11T12:55:42.000Z</time>
      </trkpt>
      <trkpt lat="47.82342" lon="7.00489">
        <ele>1120.07</ele>
        <time>2016-02-11T12:56:01.000Z</time>
      </trkpt>
      <trkpt lat="47.82337" lon="7.00477">
        <ele>1119.11</ele>
        <time>2016-02-11T12:56:10.000Z</time>
      </trkpt>
      <trkpt lat="47.82334" lon="7.00458">
        <ele>1117.67</ele>
        <time>2016-02-11T12:56:25.000Z</time>
      </trkpt>
      <trkpt lat="47.82335" lon="7.00429">
        <ele>1110.46</ele>
        <time>2016-02-11T12:56:53.000Z</time>
      </trkpt>
      <trkpt lat="47.82329" lon="7.00381">
        <ele>1104.21</ele>
        <time>2016-02-11T12:57:40.000Z</time>
      </trkpt>
      <trkpt lat="47.82342" lon="7.00366">
        <ele>1097.96</ele>
        <time>2016-02-11T12:58:43.000Z</time>
      </trkpt>
      <trkpt lat="47.82333" lon="7.00363">
        <ele>1096.52</ele>
        <time>2016-02-11T13:01:44.000Z</time>
      </trkpt>
      <trkpt lat="47.82315" lon="7.0036">
        <ele>1093.64</ele>
        <time>2016-02-11T13:02:13.000Z</time>
      </trkpt>
      <trkpt lat="47.82281" lon="7.00346">
        <ele>1086.91</ele>
        <time>2016-02-11T13:02:52.000Z</time>
      </trkpt>
      <trkpt lat="47.82241" lon="7.00313">
        <ele>1071.53</ele>
        <time>2016-02-11T13:03:56.000Z</time>
      </trkpt>
      <trkpt lat="47.82232" lon="7.00307">
        <ele>1071.53</ele>
        <time>2016-02-11T13:04:10.000Z</time>
      </trkpt>
      <trkpt lat="47.82204" lon="7.00355">
        <ele>1071.53</ele>
        <time>2016-02-11T13:05:02.000Z</time>
      </trkpt>
      <trkpt lat="47.82186" lon="7.00369">
        <ele>1078.26</ele>
        <time>2016-02-11T13:05:22.000Z</time>
      </trkpt>
      <trkpt lat="47.82175" lon="7.0037">
        <ele>1084.02</ele>
        <time>2016-02-11T13:05:36.000Z</time>
      </trkpt>
      <trkpt lat="47.82133" lon="7.00354">
        <ele>1084.02</ele>
        <time>2016-02-11T13:06:35.000Z</time>
      </trkpt>
      <trkpt lat="47.82077" lon="7.00364">
        <ele>1084.02</ele>
        <time>2016-02-11T13:07:40.000Z</time>
      </trkpt>
      <trkpt lat="47.82018" lon="7.00359">
        <ele>1077.29</ele>
        <time>2016-02-11T13:08:51.000Z</time>
      </trkpt>
      <trkpt lat="47.82003" lon="7.00354">
        <ele>1072.01</ele>
        <time>2016-02-11T13:09:10.000Z</time>
      </trkpt>
      <trkpt lat="47.81978" lon="7.00347">
        <ele>1069.6</ele>
        <time>2016-02-11T13:09:36.000Z</time>
      </trkpt>
      <trkpt lat="47.81968" lon="7.00338">
        <ele>1062.87</ele>
        <time>2016-02-11T13:09:47.000Z</time>
      </trkpt>
      <trkpt lat="47.81925" lon="7.00302">
        <ele>1062.39</ele>
        <time>2016-02-11T13:10:47.000Z</time>
      </trkpt>
      <trkpt lat="47.81913" lon="7.00301">
        <ele>1062.39</ele>
        <time>2016-02-11T13:11:05.000Z</time>
      </trkpt>
      <trkpt lat="47.81884" lon="7.00319">
        <ele>1062.39</ele>
        <time>2016-02-11T13:11:43.000Z</time>
      </trkpt>
      <trkpt lat="47.81856" lon="7.00318">
        <ele>1058.07</ele>
        <time>2016-02-11T13:12:23.000Z</time>
      </trkpt>
      <trkpt lat="47.81788" lon="7.00342">
        <ele>1043.17</ele>
        <time>2016-02-11T13:13:42.000Z</time>
      </trkpt>
      <trkpt lat="47.81771" lon="7.00337">
        <ele>1043.17</ele>
        <time>2016-02-11T13:13:59.000Z</time>
      </trkpt>
      <trkpt lat="47.81746" lon="7.00347">
        <ele>1043.17</ele>
        <time>2016-02-11T13:14:24.000Z</time>
      </trkpt>
      <trkpt lat="47.81728" lon="7.00346">
        <ele>1047.01</ele>
        <time>2016-02-11T13:14:43.000Z</time>
      </trkpt>
      <trkpt lat="47.81719" lon="7.0034">
        <ele>1047.97</ele>
        <time>2016-02-11T13:14:59.000Z</time>
      </trkpt>
      <trkpt lat="47.81705" lon="7.00336">
        <ele>1048.94</ele>
        <time>2016-02-11T13:15:15.000Z</time>
      </trkpt>
      <trkpt lat="47.81683" lon="7.00303">
        <ele>1047.01</ele>
        <time>2016-02-11T13:15:45.000Z</time>
      </trkpt>
      <trkpt lat="47.81675" lon="7.00304">
        <ele>1041.25</ele>
        <time>2016-02-11T13:15:53.000Z</time>
      </trkpt>
      <trkpt lat="47.81667" lon="7.003">
        <ele>1034.52</ele>
        <time>2016-02-11T13:16:02.000Z</time>
      </trkpt>
      <trkpt lat="47.81662" lon="7.00288">
        <ele>1033.55</ele>
        <time>2016-02-11T13:16:10.000Z</time>
      </trkpt>
      <trkpt lat="47.81651" lon="7.00279">
        <ele>1030.19</ele>
        <time>2016-02-11T13:16:22.000Z</time>
      </trkpt>
      <trkpt lat="47.81641" lon="7.00267">
        <ele>1029.23</ele>
        <time>2016-02-11T13:16:40.000Z</time>
      </trkpt>
      <trkpt lat="47.81635" lon="7.00251">
        <ele>1028.27</ele>
        <time>2016-02-11T13:16:53.000Z</time>
      </trkpt>
      <trkpt lat="47.81633" lon="7.00233">
        <ele>1028.27</ele>
        <time>2016-02-11T13:17:15.000Z</time>
      </trkpt>
      <trkpt lat="47.81626" lon="7.00215">
        <ele>1017.69</ele>
        <time>2016-02-11T13:17:34.000Z</time>
      </trkpt>
      <trkpt lat="47.8162" lon="7.00185">
        <ele>1016.73</ele>
        <time>2016-02-11T13:17:56.000Z</time>
      </trkpt>
      <trkpt lat="47.81619" lon="7.00166">
        <ele>1011.44</ele>
        <time>2016-02-11T13:18:15.000Z</time>
      </trkpt>
      <trkpt lat="47.8161" lon="7.00144">
        <ele>1010.96</ele>
        <time>2016-02-11T13:18:33.000Z</time>
      </trkpt>
      <trkpt lat="47.8161" lon="7.0012">
        <ele>1007.6</ele>
        <time>2016-02-11T13:18:57.000Z</time>
      </trkpt>
      <trkpt lat="47.81606" lon="7.00105">
        <ele>1006.64</ele>
        <time>2016-02-11T13:19:14.000Z</time>
      </trkpt>
      <trkpt lat="47.81604" lon="7.00072">
        <ele>1006.16</ele>
        <time>2016-02-11T13:19:38.000Z</time>
      </trkpt>
      <trkpt lat="47.81607" lon="7.00014">
        <ele>991.257</ele>
        <time>2016-02-11T13:20:25.000Z</time>
      </trkpt>
      <trkpt lat="47.8161" lon="6.9999">
        <ele>986.45</ele>
        <time>2016-02-11T13:20:48.000Z</time>
      </trkpt>
      <trkpt lat="47.81612" lon="6.9992">
        <ele>986.45</ele>
        <time>2016-02-11T13:21:41.000Z</time>
      </trkpt>
      <trkpt lat="47.81608" lon="6.99904">
        <ele>983.566</ele>
        <time>2016-02-11T13:21:49.000Z</time>
      </trkpt>
      <trkpt lat="47.81615" lon="6.99859">
        <ele>977.318</ele>
        <time>2016-02-11T13:22:23.000Z</time>
      </trkpt>
      <trkpt lat="47.81628" lon="6.99821">
        <ele>975.395</ele>
        <time>2016-02-11T13:22:55.000Z</time>
      </trkpt>
      <trkpt lat="47.8163" lon="6.99804">
        <ele>967.704</ele>
        <time>2016-02-11T13:23:10.000Z</time>
      </trkpt>
      <trkpt lat="47.81628" lon="6.99724">
        <ele>962.417</ele>
        <time>2016-02-11T13:24:05.000Z</time>
      </trkpt>
      <trkpt lat="47.81625" lon="6.99713">
        <ele>958.091</ele>
        <time>2016-02-11T13:24:13.000Z</time>
      </trkpt>
      <trkpt lat="47.81621" lon="6.99705">
        <ele>952.804</ele>
        <time>2016-02-11T13:24:23.000Z</time>
      </trkpt>
      <trkpt lat="47.81617" lon="6.9968">
        <ele>947.517</ele>
        <time>2016-02-11T13:24:39.000Z</time>
      </trkpt>
      <trkpt lat="47.81613" lon="6.99657">
        <ele>943.191</ele>
        <time>2016-02-11T13:24:56.000Z</time>
      </trkpt>
      <trkpt lat="47.81608" lon="6.99628">
        <ele>935.02</ele>
        <time>2016-02-11T13:25:20.000Z</time>
      </trkpt>
      <trkpt lat="47.81614" lon="6.99597">
        <ele>933.577</ele>
        <time>2016-02-11T13:25:44.000Z</time>
      </trkpt>
      <trkpt lat="47.81607" lon="6.9957">
        <ele>933.097</ele>
        <time>2016-02-11T13:26:03.000Z</time>
      </trkpt>
      <trkpt lat="47.81598" lon="6.99556">
        <ele>925.406</ele>
        <time>2016-02-11T13:26:17.000Z</time>
      </trkpt>
      <trkpt lat="47.81587" lon="6.99541">
        <ele>921.561</ele>
        <time>2016-02-11T13:26:38.000Z</time>
      </trkpt>
      <trkpt lat="47.81575" lon="6.99523">
        <ele>918.196</ele>
        <time>2016-02-11T13:26:58.000Z</time>
      </trkpt>
      <trkpt lat="47.81558" lon="6.99501">
        <ele>918.196</ele>
        <time>2016-02-11T13:27:29.000Z</time>
      </trkpt>
      <trkpt lat="47.81547" lon="6.99502">
        <ele>918.196</ele>
        <time>2016-02-11T13:27:38.000Z</time>
      </trkpt>
      <trkpt lat="47.81534" lon="6.99513">
        <ele>916.754</ele>
        <time>2016-02-11T13:28:47.000Z</time>
      </trkpt>
      <trkpt lat="47.81545" lon="6.99513">
        <ele>921.08</ele>
        <time>2016-02-11T13:29:25.000Z</time>
      </trkpt>
      <trkpt lat="47.81533" lon="6.99513">
        <ele>921.08</ele>
        <time>2016-02-11T13:30:35.000Z</time>
      </trkpt>
      <trkpt lat="47.81538" lon="6.99521">
        <ele>908.583</ele>
        <time>2016-02-11T13:33:27.000Z</time>
      </trkpt>
      <trkpt lat="47.81525" lon="6.99507">
        <ele>908.583</ele>
        <time>2016-02-11T13:37:53.000Z</time>
      </trkpt>
      <trkpt lat="47.81534" lon="6.99537">
        <ele>908.583</ele>
        <time>2016-02-11T13:38:25.000Z</time>
      </trkpt>
      <trkpt lat="47.81538" lon="6.9956">
        <ele>898.009</ele>
        <time>2016-02-11T13:38:43.000Z</time>
      </trkpt>
      <trkpt lat="47.81533" lon="6.99595">
        <ele>897.528</ele>
        <time>2016-02-11T13:39:16.000Z</time>
      </trkpt>
      <trkpt lat="47.81535" lon="6.99612">
        <ele>894.644</ele>
        <time>2016-02-11T13:39:28.000Z</time>
      </trkpt>
      <trkpt lat="47.81527" lon="6.99638">
        <ele>894.644</ele>
        <time>2016-02-11T13:39:53.000Z</time>
      </trkpt>
      <trkpt lat="47.81525" lon="6.9966">
        <ele>895.125</ele>
        <time>2016-02-11T13:40:12.000Z</time>
      </trkpt>
      <trkpt lat="47.81512" lon="6.99709">
        <ele>898.489</ele>
        <time>2016-02-11T13:40:47.000Z</time>
      </trkpt>
      <trkpt lat="47.81502" lon="6.99741">
        <ele>907.141</ele>
        <time>2016-02-11T13:41:17.000Z</time>
      </trkpt>
      <trkpt lat="47.81432" lon="6.99814">
        <ele>907.622</ele>
        <time>2016-02-11T13:42:41.000Z</time>
      </trkpt>
      <trkpt lat="47.81415" lon="6.99814">
        <ele>907.622</ele>
        <time>2016-02-11T13:42:52.000Z</time>
      </trkpt>
      <trkpt lat="47.81385" lon="6.99838">
        <ele>907.622</ele>
        <time>2016-02-11T13:43:26.000Z</time>
      </trkpt>
      <trkpt lat="47.81355" lon="6.99906">
        <ele>907.141</ele>
        <time>2016-02-11T13:44:19.000Z</time>
      </trkpt>
      <trkpt lat="47.81357" lon="6.99923">
        <ele>907.141</ele>
        <time>2016-02-11T13:44:30.000Z</time>
      </trkpt>
      <trkpt lat="47.81364" lon="6.99936">
        <ele>907.141</ele>
        <time>2016-02-11T13:44:40.000Z</time>
      </trkpt>
      <trkpt lat="47.81369" lon="6.99955">
        <ele>911.948</ele>
        <time>2016-02-11T13:44:53.000Z</time>
      </trkpt>
      <trkpt lat="47.81397" lon="7.00038">
        <ele>911.948</ele>
        <time>2016-02-11T13:45:51.000Z</time>
      </trkpt>
      <trkpt lat="47.8141" lon="7.00047">
        <ele>912.428</ele>
        <time>2016-02-11T13:46:06.000Z</time>
      </trkpt>
      <trkpt lat="47.81418" lon="7.00069">
        <ele>914.351</ele>
        <time>2016-02-11T13:46:23.000Z</time>
      </trkpt>
      <trkpt lat="47.8143" lon="7.00089">
        <ele>921.561</ele>
        <time>2016-02-11T13:46:41.000Z</time>
      </trkpt>
      <trkpt lat="47.81429" lon="7.00105">
        <ele>923.003</ele>
        <time>2016-02-11T13:46:50.000Z</time>
      </trkpt>
      <trkpt lat="47.81437" lon="7.00137">
        <ele>923.484</ele>
        <time>2016-02-11T13:47:15.000Z</time>
      </trkpt>
      <trkpt lat="47.81442" lon="7.00183">
        <ele>935.981</ele>
        <time>2016-02-11T13:47:41.000Z</time>
      </trkpt>
      <trkpt lat="47.81441" lon="7.002">
        <ele>935.981</ele>
        <time>2016-02-11T13:47:52.000Z</time>
      </trkpt>
      <trkpt lat="47.81446" lon="7.00224">
        <ele>935.981</ele>
        <time>2016-02-11T13:48:13.000Z</time>
      </trkpt>
      <trkpt lat="47.81441" lon="7.00235">
        <ele>932.135</ele>
        <time>2016-02-11T13:48:22.000Z</time>
      </trkpt>
      <trkpt lat="47.81434" lon="7.00242">
        <ele>909.064</ele>
        <time>2016-02-11T13:48:34.000Z</time>
      </trkpt>
      <trkpt lat="47.81424" lon="7.00241">
        <ele>907.622</ele>
        <time>2016-02-11T13:48:43.000Z</time>
      </trkpt>
      <trkpt lat="47.81414" lon="7.00233">
        <ele>907.622</ele>
        <time>2016-02-11T13:48:53.000Z</time>
      </trkpt>
      <trkpt lat="47.81389" lon="7.00226">
        <ele>907.622</ele>
        <time>2016-02-11T13:49:13.000Z</time>
      </trkpt>
      <trkpt lat="47.8137" lon="7.0021">
        <ele>909.545</ele>
        <time>2016-02-11T13:49:30.000Z</time>
      </trkpt>
      <trkpt lat="47.81356" lon="7.00209">
        <ele>912.428</ele>
        <time>2016-02-11T13:49:44.000Z</time>
      </trkpt>
      <trkpt lat="47.81345" lon="7.00202">
        <ele>912.428</ele>
        <time>2016-02-11T13:49:57.000Z</time>
      </trkpt>
      <trkpt lat="47.81335" lon="7.00191">
        <ele>912.428</ele>
        <time>2016-02-11T13:50:07.000Z</time>
      </trkpt>
      <trkpt lat="47.81318" lon="7.00185">
        <ele>909.064</ele>
        <time>2016-02-11T13:50:25.000Z</time>
      </trkpt>
      <trkpt lat="47.81286" lon="7.0017">
        <ele>904.738</ele>
        <time>2016-02-11T13:50:57.000Z</time>
      </trkpt>
      <trkpt lat="47.8127" lon="7.00175">
        <ele>904.738</ele>
        <time>2016-02-11T13:51:12.000Z</time>
      </trkpt>
      <trkpt lat="47.81251" lon="7.00173">
        <ele>904.738</ele>
        <time>2016-02-11T13:51:30.000Z</time>
      </trkpt>
      <trkpt lat="47.81237" lon="7.00166">
        <ele>907.622</ele>
        <time>2016-02-11T13:51:41.000Z</time>
      </trkpt>
      <trkpt lat="47.81206" lon="7.00173">
        <ele>907.622</ele>
        <time>2016-02-11T13:52:15.000Z</time>
      </trkpt>
      <trkpt lat="47.81194" lon="7.00172">
        <ele>910.025</ele>
        <time>2016-02-11T13:52:29.000Z</time>
      </trkpt>
      <trkpt lat="47.81164" lon="7.00159">
        <ele>910.506</ele>
        <time>2016-02-11T13:53:00.000Z</time>
      </trkpt>
      <trkpt lat="47.81149" lon="7.00146">
        <ele>910.506</ele>
        <time>2016-02-11T13:53:18.000Z</time>
      </trkpt>
      <trkpt lat="47.81139" lon="7.00145">
        <ele>910.506</ele>
        <time>2016-02-11T13:53:30.000Z</time>
      </trkpt>
      <trkpt lat="47.81122" lon="7.00133">
        <ele>910.025</ele>
        <time>2016-02-11T13:53:48.000Z</time>
      </trkpt>
      <trkpt lat="47.81092" lon="7.0013">
        <ele>908.103</ele>
        <time>2016-02-11T13:54:19.000Z</time>
      </trkpt>
      <trkpt lat="47.81077" lon="7.00139">
        <ele>901.854</ele>
        <time>2016-02-11T13:54:34.000Z</time>
      </trkpt>
      <trkpt lat="47.81065" lon="7.00143">
        <ele>896.086</ele>
        <time>2016-02-11T13:54:45.000Z</time>
      </trkpt>
      <trkpt lat="47.81044" lon="7.00171">
        <ele>896.086</ele>
        <time>2016-02-11T13:55:11.000Z</time>
      </trkpt>
      <trkpt lat="47.8105" lon="7.00191">
        <ele>896.086</ele>
        <time>2016-02-11T13:55:27.000Z</time>
      </trkpt>
      <trkpt lat="47.81054" lon="7.00239">
        <ele>896.086</ele>
        <time>2016-02-11T13:55:53.000Z</time>
      </trkpt>
      <trkpt lat="47.81048" lon="7.00258">
        <ele>891.76</ele>
        <time>2016-02-11T13:56:12.000Z</time>
      </trkpt>
      <trkpt lat="47.8101" lon="7.00315">
        <ele>891.76</ele>
        <time>2016-02-11T13:57:02.000Z</time>
      </trkpt>
      <trkpt lat="47.80985" lon="7.00472">
        <ele>898.97</ele>
        <time>2016-02-11T13:58:52.000Z</time>
      </trkpt>
      <trkpt lat="47.80988" lon="7.00495">
        <ele>903.777</ele>
        <time>2016-02-11T13:59:07.000Z</time>
      </trkpt>
      <trkpt lat="47.80995" lon="7.00522">
        <ele>903.777</ele>
        <time>2016-02-11T13:59:26.000Z</time>
      </trkpt>
      <trkpt lat="47.81005" lon="7.00539">
        <ele>903.777</ele>
        <time>2016-02-11T13:59:40.000Z</time>
      </trkpt>
      <trkpt lat="47.80997" lon="7.00572">
        <ele>887.915</ele>
        <time>2016-02-11T14:00:07.000Z</time>
      </trkpt>
      <trkpt lat="47.80981" lon="7.00604">
        <ele>884.55</ele>
        <time>2016-02-11T14:00:35.000Z</time>
      </trkpt>
      <trkpt lat="47.80972" lon="7.00636">
        <ele>884.55</ele>
        <time>2016-02-11T14:01:01.000Z</time>
      </trkpt>
      <trkpt lat="47.80957" lon="7.00654">
        <ele>884.55</ele>
        <time>2016-02-11T14:01:24.000Z</time>
      </trkpt>
      <trkpt lat="47.80958" lon="7.0064">
        <ele>885.992</ele>
        <time>2016-02-11T14:02:33.000Z</time>
      </trkpt>
      <trkpt lat="47.80964" lon="7.00654">
        <ele>885.992</ele>
        <time>2016-02-11T14:03:27.000Z</time>
      </trkpt>
      <trkpt lat="47.80946" lon="7.00662">
        <ele>885.992</ele>
        <time>2016-02-11T14:06:04.000Z</time>
      </trkpt>
      <trkpt lat="47.8094" lon="7.00661">
        <ele>878.302</ele>
        <time>2016-02-11T14:06:13.000Z</time>
      </trkpt>
      <trkpt lat="47.80899" lon="7.00654">
        <ele>873.976</ele>
        <time>2016-02-11T14:06:58.000Z</time>
      </trkpt>
      <trkpt lat="47.80887" lon="7.00656">
        <ele>873.976</ele>
        <time>2016-02-11T14:07:08.000Z</time>
      </trkpt>
      <trkpt lat="47.80856" lon="7.00648">
        <ele>866.766</ele>
        <time>2016-02-11T14:07:32.000Z</time>
      </trkpt>
      <trkpt lat="47.80823" lon="7.00626">
        <ele>866.766</ele>
        <time>2016-02-11T14:08:07.000Z</time>
      </trkpt>
      <trkpt lat="47.80791" lon="7.0063">
        <ele>865.805</ele>
        <time>2016-02-11T14:08:35.000Z</time>
      </trkpt>
      <trkpt lat="47.80786" lon="7.00624">
        <ele>859.075</ele>
        <time>2016-02-11T14:08:45.000Z</time>
      </trkpt>
      <trkpt lat="47.80775" lon="7.00617">
        <ele>852.827</ele>
        <time>2016-02-11T14:08:54.000Z</time>
      </trkpt>
      <trkpt lat="47.80766" lon="7.00608">
        <ele>852.827</ele>
        <time>2016-02-11T14:09:04.000Z</time>
      </trkpt>
      <trkpt lat="47.80756" lon="7.00608">
        <ele>852.827</ele>
        <time>2016-02-11T14:09:14.000Z</time>
      </trkpt>
      <trkpt lat="47.80747" lon="7.00615">
        <ele>851.865</ele>
        <time>2016-02-11T14:09:22.000Z</time>
      </trkpt>
      <trkpt lat="47.80733" lon="7.00677">
        <ele>853.307</ele>
        <time>2016-02-11T14:10:03.000Z</time>
      </trkpt>
      <trkpt lat="47.80732" lon="7.00695">
        <ele>854.749</ele>
        <time>2016-02-11T14:10:12.000Z</time>
      </trkpt>
      <trkpt lat="47.80726" lon="7.00722">
        <ele>861.479</ele>
        <time>2016-02-11T14:10:29.000Z</time>
      </trkpt>
      <trkpt lat="47.80721" lon="7.00742">
        <ele>868.208</ele>
        <time>2016-02-11T14:10:40.000Z</time>
      </trkpt>
      <trkpt lat="47.80721" lon="7.00761">
        <ele>868.208</ele>
        <time>2016-02-11T14:10:52.000Z</time>
      </trkpt>
      <trkpt lat="47.80708" lon="7.00779">
        <ele>868.208</ele>
        <time>2016-02-11T14:11:07.000Z</time>
      </trkpt>
      <trkpt lat="47.80711" lon="7.0079">
        <ele>860.517</ele>
        <time>2016-02-11T14:11:11.000Z</time>
      </trkpt>
      <trkpt lat="47.80708" lon="7.00806">
        <ele>860.037</ele>
        <time>2016-02-11T14:11:21.000Z</time>
      </trkpt>
      <trkpt lat="47.8068" lon="7.00819">
        <ele>859.556</ele>
        <time>2016-02-11T14:11:40.000Z</time>
      </trkpt>
      <trkpt lat="47.80647" lon="7.00855">
        <ele>851.385</ele>
        <time>2016-02-11T14:12:18.000Z</time>
      </trkpt>
      <trkpt lat="47.8059" lon="7.00931">
        <ele>851.385</ele>
        <time>2016-02-11T14:13:21.000Z</time>
      </trkpt>
      <trkpt lat="47.80574" lon="7.0097">
        <ele>842.733</ele>
        <time>2016-02-11T14:13:50.000Z</time>
      </trkpt>
      <trkpt lat="47.80534" lon="7.00999">
        <ele>842.252</ele>
        <time>2016-02-11T14:14:26.000Z</time>
      </trkpt>
      <trkpt lat="47.8052" lon="7.01004">
        <ele>841.291</ele>
        <time>2016-02-11T14:14:40.000Z</time>
      </trkpt>
      <trkpt lat="47.80468" lon="7.01047">
        <ele>841.291</ele>
        <time>2016-02-11T14:15:27.000Z</time>
      </trkpt>
      <trkpt lat="47.80455" lon="7.01049">
        <ele>823.507</ele>
        <time>2016-02-11T14:15:37.000Z</time>
      </trkpt>
      <trkpt lat="47.80419" lon="7.01027">
        <ele>823.507</ele>
        <time>2016-02-11T14:16:14.000Z</time>
      </trkpt>
      <trkpt lat="47.80403" lon="7.00995">
        <ele>823.507</ele>
        <time>2016-02-11T14:16:41.000Z</time>
      </trkpt>
      <trkpt lat="47.80403" lon="7.01">
        <ele>840.33</ele>
        <time>2016-02-11T14:16:59.000Z</time>
      </trkpt>
      <trkpt lat="47.8041" lon="7.01004">
        <ele>847.54</ele>
        <time>2016-02-11T14:19:16.000Z</time>
      </trkpt>
      <trkpt lat="47.8042" lon="7.01038">
        <ele>848.981</ele>
        <time>2016-02-11T14:20:17.000Z</time>
      </trkpt>
      <trkpt lat="47.80449" lon="7.01102">
        <ele>851.865</ele>
        <time>2016-02-11T14:21:35.000Z</time>
      </trkpt>
      <trkpt lat="47.80451" lon="7.01117">
        <ele>851.865</ele>
        <time>2016-02-11T14:21:54.000Z</time>
      </trkpt>
      <trkpt lat="47.80461" lon="7.01129">
        <ele>852.827</ele>
        <time>2016-02-11T14:22:15.000Z</time>
      </trkpt>
      <trkpt lat="47.80478" lon="7.01157">
        <ele>860.998</ele>
        <time>2016-02-11T14:23:08.000Z</time>
      </trkpt>
      <trkpt lat="47.80495" lon="7.01173">
        <ele>864.363</ele>
        <time>2016-02-11T14:23:45.000Z</time>
      </trkpt>
      <trkpt lat="47.80498" lon="7.01177">
        <ele>872.053</ele>
        <time>2016-02-11T14:24:09.000Z</time>
      </trkpt>
      <trkpt lat="47.805" lon="7.0119">
        <ele>872.053</ele>
        <time>2016-02-11T14:24:24.000Z</time>
      </trkpt>
      <trkpt lat="47.80499" lon="7.01217">
        <ele>877.341</ele>
        <time>2016-02-11T14:24:59.000Z</time>
      </trkpt>
      <trkpt lat="47.80502" lon="7.01249">
        <ele>877.341</ele>
        <time>2016-02-11T14:25:19.000Z</time>
      </trkpt>
      <trkpt lat="47.80508" lon="7.01258">
        <ele>877.341</ele>
        <time>2016-02-11T14:25:31.000Z</time>
      </trkpt>
      <trkpt lat="47.80524" lon="7.01308">
        <ele>879.744</ele>
        <time>2016-02-11T14:26:15.000Z</time>
      </trkpt>
      <trkpt lat="47.80531" lon="7.01316">
        <ele>881.186</ele>
        <time>2016-02-11T14:26:25.000Z</time>
      </trkpt>
      <trkpt lat="47.80542" lon="7.0134">
        <ele>886.473</ele>
        <time>2016-02-11T14:26:44.000Z</time>
      </trkpt>
      <trkpt lat="47.80541" lon="7.01357">
        <ele>886.473</ele>
        <time>2016-02-11T14:27:03.000Z</time>
      </trkpt>
      <trkpt lat="47.80555" lon="7.01364">
        <ele>886.473</ele>
        <time>2016-02-11T14:27:20.000Z</time>
      </trkpt>
      <trkpt lat="47.80562" lon="7.01377">
        <ele>886.473</ele>
        <time>2016-02-11T14:27:31.000Z</time>
      </trkpt>
      <trkpt lat="47.80565" lon="7.01391">
        <ele>883.589</ele>
        <time>2016-02-11T14:27:47.000Z</time>
      </trkpt>
      <trkpt lat="47.80552" lon="7.01399">
        <ele>882.628</ele>
        <time>2016-02-11T14:28:18.000Z</time>
      </trkpt>
      <trkpt lat="47.80561" lon="7.01399">
        <ele>881.186</ele>
        <time>2016-02-11T14:33:16.000Z</time>
      </trkpt>
      <trkpt lat="47.80563" lon="7.01415">
        <ele>878.302</ele>
        <time>2016-02-11T14:33:37.000Z</time>
      </trkpt>
      <trkpt lat="47.80556" lon="7.01424">
        <ele>866.285</ele>
        <time>2016-02-11T14:33:48.000Z</time>
      </trkpt>
      <trkpt lat="47.80545" lon="7.01489">
        <ele>864.843</ele>
        <time>2016-02-11T14:34:54.000Z</time>
      </trkpt>
      <trkpt lat="47.80558" lon="7.01556">
        <ele>863.882</ele>
        <time>2016-02-11T14:36:14.000Z</time>
      </trkpt>
      <trkpt lat="47.80574" lon="7.01581">
        <ele>863.882</ele>
        <time>2016-02-11T14:36:35.000Z</time>
      </trkpt>
      <trkpt lat="47.80578" lon="7.01595">
        <ele>863.882</ele>
        <time>2016-02-11T14:36:46.000Z</time>
      </trkpt>
      <trkpt lat="47.80579" lon="7.01609">
        <ele>863.882</ele>
        <time>2016-02-11T14:36:55.000Z</time>
      </trkpt>
      <trkpt lat="47.80583" lon="7.01623">
        <ele>863.882</ele>
        <time>2016-02-11T14:37:05.000Z</time>
      </trkpt>
      <trkpt lat="47.80597" lon="7.01644">
        <ele>863.882</ele>
        <time>2016-02-11T14:37:25.000Z</time>
      </trkpt>
      <trkpt lat="47.80604" lon="7.01672">
        <ele>864.363</ele>
        <time>2016-02-11T14:37:43.000Z</time>
      </trkpt>
      <trkpt lat="47.80604" lon="7.01686">
        <ele>864.363</ele>
        <time>2016-02-11T14:37:57.000Z</time>
      </trkpt>
      <trkpt lat="47.80607" lon="7.01698">
        <ele>868.208</ele>
        <time>2016-02-11T14:38:04.000Z</time>
      </trkpt>
      <trkpt lat="47.80619" lon="7.0173">
        <ele>868.208</ele>
        <time>2016-02-11T14:38:31.000Z</time>
      </trkpt>
      <trkpt lat="47.80604" lon="7.01731">
        <ele>872.534</ele>
        <time>2016-02-11T14:39:36.000Z</time>
      </trkpt>
      <trkpt lat="47.80622" lon="7.01716">
        <ele>872.534</ele>
        <time>2016-02-11T14:41:13.000Z</time>
      </trkpt>
      <trkpt lat="47.8061" lon="7.0172">
        <ele>863.401</ele>
        <time>2016-02-11T14:41:47.000Z</time>
      </trkpt>
      <trkpt lat="47.80621" lon="7.01702">
        <ele>862.44</ele>
        <time>2016-02-11T14:42:27.000Z</time>
      </trkpt>
      <trkpt lat="47.8063" lon="7.01709">
        <ele>852.346</ele>
        <time>2016-02-11T14:42:59.000Z</time>
      </trkpt>
      <trkpt lat="47.80617" lon="7.01723">
        <ele>852.346</ele>
        <time>2016-02-11T14:43:44.000Z</time>
      </trkpt>
      <trkpt lat="47.80613" lon="7.01707">
        <ele>859.075</ele>
        <time>2016-02-11T14:43:57.000Z</time>
      </trkpt>
      <trkpt lat="47.80621" lon="7.01721">
        <ele>859.075</ele>
        <time>2016-02-11T14:44:19.000Z</time>
      </trkpt>
      <trkpt lat="47.80627" lon="7.01708">
        <ele>864.363</ele>
        <time>2016-02-11T14:44:58.000Z</time>
      </trkpt>
      <trkpt lat="47.80622" lon="7.01723">
        <ele>866.285</ele>
        <time>2016-02-11T14:45:44.000Z</time>
      </trkpt>
      <trkpt lat="47.80639" lon="7.01753">
        <ele>864.363</ele>
        <time>2016-02-11T14:46:37.000Z</time>
      </trkpt>
      <trkpt lat="47.80645" lon="7.0177">
        <ele>864.363</ele>
        <time>2016-02-11T14:46:52.000Z</time>
      </trkpt>
      <trkpt lat="47.80654" lon="7.01772">
        <ele>864.363</ele>
        <time>2016-02-11T14:47:02.000Z</time>
      </trkpt>
      <trkpt lat="47.80678" lon="7.01789">
        <ele>860.517</ele>
        <time>2016-02-11T14:47:39.000Z</time>
      </trkpt>
      <trkpt lat="47.80788" lon="7.01753">
        <ele>857.633</ele>
        <time>2016-02-11T14:49:24.000Z</time>
      </trkpt>
      <trkpt lat="47.80836" lon="7.01759">
        <ele>854.269</ele>
        <time>2016-02-11T14:50:13.000Z</time>
      </trkpt>
      <trkpt lat="47.80843" lon="7.01775">
        <ele>854.269</ele>
        <time>2016-02-11T14:50:26.000Z</time>
      </trkpt>
      <trkpt lat="47.80855" lon="7.01784">
        <ele>853.307</ele>
        <time>2016-02-11T14:50:36.000Z</time>
      </trkpt>
      <trkpt lat="47.80879" lon="7.01842">
        <ele>853.307</ele>
        <time>2016-02-11T14:51:19.000Z</time>
      </trkpt>
      <trkpt lat="47.80893" lon="7.01858">
        <ele>853.307</ele>
        <time>2016-02-11T14:51:35.000Z</time>
      </trkpt>
      <trkpt lat="47.80906" lon="7.01886">
        <ele>848.02</ele>
        <time>2016-02-11T14:52:05.000Z</time>
      </trkpt>
      <trkpt lat="47.80914" lon="7.01898">
        <ele>848.02</ele>
        <time>2016-02-11T14:52:15.000Z</time>
      </trkpt>
      <trkpt lat="47.80955" lon="7.01943">
        <ele>848.02</ele>
        <time>2016-02-11T14:53:10.000Z</time>
      </trkpt>
      <trkpt lat="47.80973" lon="7.01948">
        <ele>848.02</ele>
        <time>2016-02-11T14:53:29.000Z</time>
      </trkpt>
      <trkpt lat="47.81003" lon="7.01932">
        <ele>853.307</ele>
        <time>2016-02-11T14:53:58.000Z</time>
      </trkpt>
      <trkpt lat="47.81078" lon="7.01834">
        <ele>855.23</ele>
        <time>2016-02-11T14:55:32.000Z</time>
      </trkpt>
      <trkpt lat="47.81096" lon="7.0184">
        <ele>845.617</ele>
        <time>2016-02-11T14:56:08.000Z</time>
      </trkpt>
      <trkpt lat="47.81185" lon="7.01875">
        <ele>839.368</ele>
        <time>2016-02-11T14:59:11.000Z</time>
      </trkpt>
      <trkpt lat="47.81212" lon="7.01875">
        <ele>834.081</ele>
        <time>2016-02-11T14:59:46.000Z</time>
      </trkpt>
      <trkpt lat="47.81239" lon="7.01892">
        <ele>833.12</ele>
        <time>2016-02-11T15:00:41.000Z</time>
      </trkpt>
      <trkpt lat="47.81201" lon="7.01955">
        <ele>824.948</ele>
        <time>2016-02-11T15:03:40.000Z</time>
      </trkpt>
      <trkpt lat="47.81151" lon="7.0197">
        <ele>814.374</ele>
        <time>2016-02-11T15:04:33.000Z</time>
      </trkpt>
      <trkpt lat="47.81117" lon="7.01991">
        <ele>805.722</ele>
        <time>2016-02-11T15:05:18.000Z</time>
      </trkpt>
      <trkpt lat="47.81121" lon="7.01997">
        <ele>800.435</ele>
        <time>2016-02-11T15:05:35.000Z</time>
      </trkpt>
      <trkpt lat="47.81135" lon="7.02008">
        <ele>799.474</ele>
        <time>2016-02-11T15:05:52.000Z</time>
      </trkpt>
      <trkpt lat="47.81126" lon="7.02029">
        <ele>796.59</ele>
        <time>2016-02-11T15:06:14.000Z</time>
      </trkpt>
      <trkpt lat="47.81117" lon="7.02037">
        <ele>795.628</ele>
        <time>2016-02-11T15:06:23.000Z</time>
      </trkpt>
      <trkpt lat="47.81124" lon="7.02048">
        <ele>795.147</ele>
        <time>2016-02-11T15:06:47.000Z</time>
      </trkpt>
      <trkpt lat="47.81175" lon="7.02056">
        <ele>790.341</ele>
        <time>2016-02-11T15:07:35.000Z</time>
      </trkpt>
      <trkpt lat="47.81183" lon="7.02064">
        <ele>789.38</ele>
        <time>2016-02-11T15:07:53.000Z</time>
      </trkpt>
      <trkpt lat="47.8117" lon="7.02084">
        <ele>781.689</ele>
        <time>2016-02-11T15:08:13.000Z</time>
      </trkpt>
      <trkpt lat="47.81151" lon="7.0211">
        <ele>781.689</ele>
        <time>2016-02-11T15:08:54.000Z</time>
      </trkpt>
      <trkpt lat="47.81122" lon="7.02136">
        <ele>773.037</ele>
        <time>2016-02-11T15:09:36.000Z</time>
      </trkpt>
      <trkpt lat="47.81092" lon="7.02146">
        <ele>769.673</ele>
        <time>2016-02-11T15:10:13.000Z</time>
      </trkpt>
      <trkpt lat="47.81082" lon="7.02173">
        <ele>766.308</ele>
        <time>2016-02-11T15:10:35.000Z</time>
      </trkpt>
      <trkpt lat="47.81066" lon="7.02215">
        <ele>763.424</ele>
        <time>2016-02-11T15:11:17.000Z</time>
      </trkpt>
      <trkpt lat="47.81071" lon="7.0222">
        <ele>759.098</ele>
        <time>2016-02-11T15:11:35.000Z</time>
      </trkpt>
      <trkpt lat="47.81086" lon="7.02228">
        <ele>759.098</ele>
        <time>2016-02-11T15:12:40.000Z</time>
      </trkpt>
      <trkpt lat="47.81099" lon="7.02221">
        <ele>752.369</ele>
        <time>2016-02-11T15:14:12.000Z</time>
      </trkpt>
      <trkpt lat="47.81094" lon="7.02235">
        <ele>750.447</ele>
        <time>2016-02-11T15:14:38.000Z</time>
      </trkpt>
      <trkpt lat="47.81091" lon="7.0222">
        <ele>749.966</ele>
        <time>2016-02-11T15:16:03.000Z</time>
      </trkpt>
      <trkpt lat="47.8109" lon="7.02235">
        <ele>749.966</ele>
        <time>2016-02-11T15:16:33.000Z</time>
      </trkpt>
      <trkpt lat="47.81073" lon="7.02267">
        <ele>749.485</ele>
        <time>2016-02-11T15:17:05.000Z</time>
      </trkpt>
      <trkpt lat="47.81075" lon="7.0228">
        <ele>742.756</ele>
        <time>2016-02-11T15:17:15.000Z</time>
      </trkpt>
      <trkpt lat="47.81075" lon="7.02288">
        <ele>738.43</ele>
        <time>2016-02-11T15:17:24.000Z</time>
      </trkpt>
      <trkpt lat="47.81064" lon="7.02316">
        <ele>737.469</ele>
        <time>2016-02-11T15:18:59.000Z</time>
      </trkpt>
      <trkpt lat="47.8105" lon="7.02329">
        <ele>735.546</ele>
        <time>2016-02-11T15:19:19.000Z</time>
      </trkpt>
      <trkpt lat="47.81051" lon="7.02347">
        <ele>721.126</ele>
        <time>2016-02-11T15:19:49.000Z</time>
      </trkpt>
      <trkpt lat="47.81004" lon="7.02382">
        <ele>715.358</ele>
        <time>2016-02-11T15:20:33.000Z</time>
      </trkpt>
      <trkpt lat="47.80992" lon="7.02397">
        <ele>715.358</ele>
        <time>2016-02-11T15:21:00.000Z</time>
      </trkpt>
      <trkpt lat="47.80931" lon="7.02448">
        <ele>715.358</ele>
        <time>2016-02-11T15:22:04.000Z</time>
      </trkpt>
      <trkpt lat="47.8093" lon="7.02476">
        <ele>715.358</ele>
        <time>2016-02-11T15:22:22.000Z</time>
      </trkpt>
      <trkpt lat="47.80921" lon="7.02467">
        <ele>720.165</ele>
        <time>2016-02-11T15:22:48.000Z</time>
      </trkpt>
      <trkpt lat="47.80929" lon="7.02474">
        <ele>719.684</ele>
        <time>2016-02-11T15:22:59.000Z</time>
      </trkpt>
      <trkpt lat="47.80931" lon="7.02457">
        <ele>719.684</ele>
        <time>2016-02-11T15:24:05.000Z</time>
      </trkpt>
      <trkpt lat="47.80924" lon="7.02467">
        <ele>714.397</ele>
        <time>2016-02-11T15:24:34.000Z</time>
      </trkpt>
      <trkpt lat="47.80939" lon="7.02469">
        <ele>714.397</ele>
        <time>2016-02-11T15:25:07.000Z</time>
      </trkpt>
      <trkpt lat="47.80937" lon="7.02507">
        <ele>711.994</ele>
        <time>2016-02-11T15:25:45.000Z</time>
      </trkpt>
      <trkpt lat="47.80902" lon="7.0249">
        <ele>701.419</ele>
        <time>2016-02-11T15:27:21.000Z</time>
      </trkpt>
      <trkpt lat="47.80895" lon="7.0248">
        <ele>701.419</ele>
        <time>2016-02-11T15:27:32.000Z</time>
      </trkpt>
      <trkpt lat="47.80873" lon="7.02486">
        <ele>701.9</ele>
        <time>2016-02-11T15:29:16.000Z</time>
      </trkpt>
      <trkpt lat="47.80866" lon="7.02482">
        <ele>710.552</ele>
        <time>2016-02-11T15:29:28.000Z</time>
      </trkpt>
      <trkpt lat="47.80877" lon="7.02466">
        <ele>710.552</ele>
        <time>2016-02-11T15:29:57.000Z</time>
      </trkpt>
      <trkpt lat="47.80836" lon="7.02466">
        <ele>699.496</ele>
        <time>2016-02-11T15:30:38.000Z</time>
      </trkpt>
      <trkpt lat="47.80793" lon="7.02447">
        <ele>693.248</ele>
        <time>2016-02-11T15:31:23.000Z</time>
      </trkpt>
      <trkpt lat="47.80773" lon="7.02438">
        <ele>692.767</ele>
        <time>2016-02-11T15:31:44.000Z</time>
      </trkpt>
      <trkpt lat="47.80762" lon="7.02429">
        <ele>692.767</ele>
        <time>2016-02-11T15:31:54.000Z</time>
      </trkpt>
      <trkpt lat="47.80699" lon="7.02427">
        <ele>692.767</ele>
        <time>2016-02-11T15:33:20.000Z</time>
      </trkpt>
      <trkpt lat="47.80682" lon="7.02444">
        <ele>687.961</ele>
        <time>2016-02-11T15:33:46.000Z</time>
      </trkpt>
      <trkpt lat="47.8066" lon="7.0246">
        <ele>682.673</ele>
        <time>2016-02-11T15:34:04.000Z</time>
      </trkpt>
      <trkpt lat="47.8064" lon="7.02472">
        <ele>668.734</ele>
        <time>2016-02-11T15:34:34.000Z</time>
      </trkpt>
      <trkpt lat="47.80616" lon="7.02502">
        <ele>662.486</ele>
        <time>2016-02-11T15:35:04.000Z</time>
      </trkpt>
      <trkpt lat="47.80609" lon="7.0252">
        <ele>662.486</ele>
        <time>2016-02-11T15:35:23.000Z</time>
      </trkpt>
      <trkpt lat="47.80581" lon="7.0255">
        <ele>657.679</ele>
        <time>2016-02-11T15:35:54.000Z</time>
      </trkpt>
      <trkpt lat="47.80571" lon="7.02593">
        <ele>654.795</ele>
        <time>2016-02-11T15:36:31.000Z</time>
      </trkpt>
      <trkpt lat="47.80545" lon="7.02623">
        <ele>654.795</ele>
        <time>2016-02-11T15:37:09.000Z</time>
      </trkpt>
      <trkpt lat="47.80524" lon="7.02638">
        <ele>650.95</ele>
        <time>2016-02-11T15:37:36.000Z</time>
      </trkpt>
      <trkpt lat="47.80515" lon="7.02651">
        <ele>650.95</ele>
        <time>2016-02-11T15:37:51.000Z</time>
      </trkpt>
      <trkpt lat="47.80508" lon="7.02675">
        <ele>649.989</ele>
        <time>2016-02-11T15:38:08.000Z</time>
      </trkpt>
      <trkpt lat="47.80497" lon="7.02694">
        <ele>649.989</ele>
        <time>2016-02-11T15:38:24.000Z</time>
      </trkpt>
      <trkpt lat="47.8042" lon="7.02693">
        <ele>649.989</ele>
        <time>2016-02-11T15:39:53.000Z</time>
      </trkpt>
      <trkpt lat="47.80413" lon="7.02702">
        <ele>629.32</ele>
        <time>2016-02-11T15:40:02.000Z</time>
      </trkpt>
      <trkpt lat="47.80389" lon="7.0267">
        <ele>627.398</ele>
        <time>2016-02-11T15:40:27.000Z</time>
      </trkpt>
      <trkpt lat="47.80387" lon="7.02653">
        <ele>621.149</ele>
        <time>2016-02-11T15:40:36.000Z</time>
      </trkpt>
      <trkpt lat="47.80375" lon="7.02633">
        <ele>617.784</ele>
        <time>2016-02-11T15:40:51.000Z</time>
      </trkpt>
      <trkpt lat="47.80367" lon="7.02614">
        <ele>612.017</ele>
        <time>2016-02-11T15:41:03.000Z</time>
      </trkpt>
      <trkpt lat="47.80361" lon="7.02591">
        <ele>612.017</ele>
        <time>2016-02-11T15:41:24.000Z</time>
      </trkpt>
      <trkpt lat="47.80337" lon="7.02553">
        <ele>612.017</ele>
        <time>2016-02-11T15:41:55.000Z</time>
      </trkpt>
      <trkpt lat="47.80333" lon="7.02541">
        <ele>611.055</ele>
        <time>2016-02-11T15:42:04.000Z</time>
      </trkpt>
      <trkpt lat="47.80324" lon="7.02531">
        <ele>611.055</ele>
        <time>2016-02-11T15:42:16.000Z</time>
      </trkpt>
      <trkpt lat="47.80252" lon="7.02484">
        <ele>606.249</ele>
        <time>2016-02-11T15:43:37.000Z</time>
      </trkpt>
      <trkpt lat="47.80238" lon="7.02472">
        <ele>597.597</ele>
        <time>2016-02-11T15:43:55.000Z</time>
      </trkpt>
      <trkpt lat="47.80221" lon="7.0247">
        <ele>597.597</ele>
        <time>2016-02-11T15:44:18.000Z</time>
      </trkpt>
      <trkpt lat="47.80202" lon="7.02462">
        <ele>597.597</ele>
        <time>2016-02-11T15:44:37.000Z</time>
      </trkpt>
      <trkpt lat="47.80188" lon="7.02461">
        <ele>604.326</ele>
        <time>2016-02-11T15:44:43.000Z</time>
      </trkpt>
      <trkpt lat="47.80155" lon="7.02434">
        <ele>604.326</ele>
        <time>2016-02-11T15:45:24.000Z</time>
      </trkpt>
      <trkpt lat="47.80141" lon="7.02435">
        <ele>596.155</ele>
        <time>2016-02-11T15:45:49.000Z</time>
      </trkpt>
      <trkpt lat="47.80128" lon="7.02433">
        <ele>591.829</ele>
        <time>2016-02-11T15:46:04.000Z</time>
      </trkpt>
      <trkpt lat="47.80118" lon="7.02431">
        <ele>589.906</ele>
        <time>2016-02-11T15:46:15.000Z</time>
      </trkpt>
      <trkpt lat="47.80095" lon="7.02422">
        <ele>588.945</ele>
        <time>2016-02-11T15:46:42.000Z</time>
      </trkpt>
      <trkpt lat="47.80039" lon="7.02488">
        <ele>587.983</ele>
        <time>2016-02-11T15:48:05.000Z</time>
      </trkpt>
      <trkpt lat="47.79945" lon="7.02554">
        <ele>578.851</ele>
        <time>2016-02-11T15:49:51.000Z</time>
      </trkpt>
      <trkpt lat="47.79919" lon="7.02583">
        <ele>575.486</ele>
        <time>2016-02-11T15:50:27.000Z</time>
      </trkpt>
      <trkpt lat="47.79843" lon="7.02627">
        <ele>575.486</ele>
        <time>2016-02-11T15:51:46.000Z</time>
      </trkpt>
      <trkpt lat="47.79829" lon="7.02652">
        <ele>575.486</ele>
        <time>2016-02-11T15:52:06.000Z</time>
      </trkpt>
      <trkpt lat="47.79824" lon="7.02704">
        <ele>576.928</ele>
        <time>2016-02-11T15:52:42.000Z</time>
      </trkpt>
      <trkpt lat="47.79827" lon="7.02739">
        <ele>577.89</ele>
        <time>2016-02-11T15:53:06.000Z</time>
      </trkpt>
      <trkpt lat="47.79821" lon="7.02769">
        <ele>577.89</ele>
        <time>2016-02-11T15:53:28.000Z</time>
      </trkpt>
      <trkpt lat="47.79779" lon="7.0279">
        <ele>575.006</ele>
        <time>2016-02-11T15:54:47.000Z</time>
      </trkpt>
      <trkpt lat="47.79748" lon="7.02825">
        <ele>574.525</ele>
        <time>2016-02-11T15:55:24.000Z</time>
      </trkpt>
      <trkpt lat="47.79742" lon="7.0284">
        <ele>574.525</ele>
        <time>2016-02-11T15:55:37.000Z</time>
      </trkpt>
      <trkpt lat="47.79721" lon="7.02865">
        <ele>569.719</ele>
        <time>2016-02-11T15:56:04.000Z</time>
      </trkpt>
      <trkpt lat="47.79523" lon="7.02983">
        <ele>559.144</ele>
        <time>2016-02-11T15:59:43.000Z</time>
      </trkpt>
    </trkseg>
  </trk>
</gpx>